sensor_id;sensor_type;location;lat;lon;timestamp;P1;durP1;ratioP1;P2;durP2;ratioP2
25163;SDS011;13440;50.860;13.662;2024-03-08T00:01:36;45.53;;;27.00;;
25163;SDS011;13440;50.860;13.662;2024-03-08T00:04:01;45.87;;;28.20;;
25163;SDS011;13440;50.860;13.662;2024-03-08T00:06:26;48.72;;;28.08;;
25163;SDS011;13440;50.860;13.662;2024-03-08T00:08:52;52.78;;;28.52;;
25163;SDS011;13440;50.860;13.662;2024-03-08T00:11:17;45.70;;;26.65;;
25163;SDS011;13440;50.860;13.662;2024-03-08T00:13:42;47.87;;;27.63;;
25163;SDS011;13440;50.860;13.662;2024-03-08T00:16:07;46.67;;;28.37;;
25163;SDS011;13440;50.860;13.662;2024-03-08T00:18:34;49.17;;;28.95;;
25163;SDS011;13440;50.860;13.662;2024-03-08T00:20:59;47.90;;;28.20;;
25163;SDS011;13440;50.860;13.662;2024-03-08T00:23:25;50.13;;;29.15;;
25163;SDS011;13440;50.860;13.662;2024-03-08T00:25:50;47.77;;;29.07;;
25163;SDS011;13440;50.860;13.662;2024-03-08T00:28:16;51.78;;;29.88;;
25163;SDS011;13440;50.860;13.662;2024-03-08T00:30:42;50.10;;;28.80;;
25163;SDS011;13440;50.860;13.662;2024-03-08T00:33:07;47.83;;;28.17;;
25163;SDS011;13440;50.860;13.662;2024-03-08T00:35:33;46.80;;;28.02;;
25163;SDS011;13440;50.860;13.662;2024-03-08T00:37:58;45.88;;;28.27;;
25163;SDS011;13440;50.860;13.662;2024-03-08T00:40:24;52.72;;;29.67;;
25163;SDS011;13440;50.860;13.662;2024-03-08T00:42:49;50.67;;;28.10;;
25163;SDS011;13440;50.860;13.662;2024-03-08T00:45:14;51.17;;;28.60;;
25163;SDS011;13440;50.860;13.662;2024-03-08T00:47:39;45.67;;;28.20;;
25163;SDS011;13440;50.860;13.662;2024-03-08T00:50:05;51.33;;;28.30;;
25163;SDS011;13440;50.860;13.662;2024-03-08T00:52:30;49.60;;;28.95;;
25163;SDS011;13440;50.860;13.662;2024-03-08T00:54:55;48.45;;;28.92;;
25163;SDS011;13440;50.860;13.662;2024-03-08T00:57:21;48.30;;;28.23;;
25163;SDS011;13440;50.860;13.662;2024-03-08T00:59:47;48.15;;;28.20;;
25163;SDS011;13440;50.860;13.662;2024-03-08T01:02:12;50.22;;;29.30;;
25163;SDS011;13440;50.860;13.662;2024-03-08T01:04:37;48.23;;;28.90;;
25163;SDS011;13440;50.860;13.662;2024-03-08T01:07:02;51.78;;;29.17;;
25163;SDS011;13440;50.860;13.662;2024-03-08T01:09:28;46.20;;;27.42;;
25163;SDS011;13440;50.860;13.662;2024-03-08T01:11:54;48.20;;;27.77;;
25163;SDS011;13440;50.860;13.662;2024-03-08T01:14:21;46.55;;;27.30;;
25163;SDS011;13440;50.860;13.662;2024-03-08T01:16:47;52.00;;;28.17;;
25163;SDS011;13440;50.860;13.662;2024-03-08T01:19:13;46.50;;;28.33;;
25163;SDS011;13440;50.860;13.662;2024-03-08T01:21:38;49.35;;;28.83;;
25163;SDS011;13440;50.860;13.662;2024-03-08T01:24:03;48.57;;;29.40;;
25163;SDS011;13440;50.860;13.662;2024-03-08T01:26:29;48.67;;;28.88;;
25163;SDS011;13440;50.860;13.662;2024-03-08T01:28:54;49.08;;;27.67;;
25163;SDS011;13440;50.860;13.662;2024-03-08T01:31:19;46.65;;;27.67;;
25163;SDS011;13440;50.860;13.662;2024-03-08T01:33:44;50.43;;;28.23;;
25163;SDS011;13440;50.860;13.662;2024-03-08T01:36:10;50.60;;;28.70;;
25163;SDS011;13440;50.860;13.662;2024-03-08T01:38:35;49.25;;;27.73;;
25163;SDS011;13440;50.860;13.662;2024-03-08T01:41:01;52.53;;;28.23;;
25163;SDS011;13440;50.860;13.662;2024-03-08T01:43:27;49.25;;;27.55;;
25163;SDS011;13440;50.860;13.662;2024-03-08T01:45:53;53.47;;;27.70;;
25163;SDS011;13440;50.860;13.662;2024-03-08T01:48:19;50.10;;;27.73;;
25163;SDS011;13440;50.860;13.662;2024-03-08T01:50:48;51.97;;;29.50;;
25163;SDS011;13440;50.860;13.662;2024-03-08T01:53:14;50.72;;;29.52;;
25163;SDS011;13440;50.860;13.662;2024-03-08T01:55:40;51.45;;;29.45;;
25163;SDS011;13440;50.860;13.662;2024-03-08T01:58:06;48.20;;;28.67;;
25163;SDS011;13440;50.860;13.662;2024-03-08T02:00:32;49.85;;;28.77;;
25163;SDS011;13440;50.860;13.662;2024-03-08T02:02:57;51.25;;;28.80;;
25163;SDS011;13440;50.860;13.662;2024-03-08T02:05:23;49.13;;;27.73;;
25163;SDS011;13440;50.860;13.662;2024-03-08T02:07:48;51.85;;;28.30;;
25163;SDS011;13440;50.860;13.662;2024-03-08T02:10:14;49.92;;;28.17;;
25163;SDS011;13440;50.860;13.662;2024-03-08T02:12:39;52.28;;;28.27;;
25163;SDS011;13440;50.860;13.662;2024-03-08T02:15:04;51.08;;;28.17;;
25163;SDS011;13440;50.860;13.662;2024-03-08T02:17:31;52.03;;;28.77;;
25163;SDS011;13440;50.860;13.662;2024-03-08T02:19:58;50.03;;;27.73;;
25163;SDS011;13440;50.860;13.662;2024-03-08T02:22:24;55.33;;;27.50;;
25163;SDS011;13440;50.860;13.662;2024-03-08T02:24:50;50.13;;;27.80;;
25163;SDS011;13440;50.860;13.662;2024-03-08T02:27:15;48.67;;;26.77;;
25163;SDS011;13440;50.860;13.662;2024-03-08T02:29:47;48.50;;;26.40;;
25163;SDS011;13440;50.860;13.662;2024-03-08T02:32:13;48.97;;;27.10;;
25163;SDS011;13440;50.860;13.662;2024-03-08T02:34:38;45.28;;;26.55;;
25163;SDS011;13440;50.860;13.662;2024-03-08T02:37:04;44.22;;;25.17;;
25163;SDS011;13440;50.860;13.662;2024-03-08T02:39:29;45.93;;;26.47;;
25163;SDS011;13440;50.860;13.662;2024-03-08T02:41:54;50.63;;;27.30;;
25163;SDS011;13440;50.860;13.662;2024-03-08T02:44:19;50.23;;;26.60;;
25163;SDS011;13440;50.860;13.662;2024-03-08T02:46:46;45.78;;;26.02;;
25163;SDS011;13440;50.860;13.662;2024-03-08T02:49:11;51.30;;;28.23;;
25163;SDS011;13440;50.860;13.662;2024-03-08T02:51:37;44.97;;;24.77;;
25163;SDS011;13440;50.860;13.662;2024-03-08T02:54:02;43.75;;;25.08;;
25163;SDS011;13440;50.860;13.662;2024-03-08T02:56:29;44.25;;;24.88;;
25163;SDS011;13440;50.860;13.662;2024-03-08T02:58:55;47.17;;;24.77;;
25163;SDS011;13440;50.860;13.662;2024-03-08T03:01:20;43.42;;;23.35;;
25163;SDS011;13440;50.860;13.662;2024-03-08T03:03:45;45.00;;;24.80;;
25163;SDS011;13440;50.860;13.662;2024-03-08T03:06:12;46.88;;;25.33;;
25163;SDS011;13440;50.860;13.662;2024-03-08T03:08:37;48.33;;;24.75;;
25163;SDS011;13440;50.860;13.662;2024-03-08T03:11:21;45.38;;;24.65;;
25163;SDS011;13440;50.860;13.662;2024-03-08T03:13:47;42.85;;;24.23;;
25163;SDS011;13440;50.860;13.662;2024-03-08T03:16:16;44.30;;;24.00;;
25163;SDS011;13440;50.860;13.662;2024-03-08T03:18:42;44.58;;;25.00;;
25163;SDS011;13440;50.860;13.662;2024-03-08T03:21:08;43.83;;;23.77;;
25163;SDS011;13440;50.860;13.662;2024-03-08T03:23:33;46.07;;;25.40;;
25163;SDS011;13440;50.860;13.662;2024-03-08T03:25:58;46.92;;;23.73;;
25163;SDS011;13440;50.860;13.662;2024-03-08T03:28:24;43.03;;;24.33;;
25163;SDS011;13440;50.860;13.662;2024-03-08T03:30:50;46.35;;;24.45;;
25163;SDS011;13440;50.860;13.662;2024-03-08T03:33:15;43.17;;;23.85;;
25163;SDS011;13440;50.860;13.662;2024-03-08T03:35:41;43.30;;;23.63;;
25163;SDS011;13440;50.860;13.662;2024-03-08T03:38:08;42.53;;;23.92;;
25163;SDS011;13440;50.860;13.662;2024-03-08T03:40:36;42.70;;;24.50;;
25163;SDS011;13440;50.860;13.662;2024-03-08T03:43:02;41.65;;;23.17;;
25163;SDS011;13440;50.860;13.662;2024-03-08T03:45:30;38.28;;;22.88;;
25163;SDS011;13440;50.860;13.662;2024-03-08T03:47:59;44.42;;;24.10;;
25163;SDS011;13440;50.860;13.662;2024-03-08T03:50:25;40.88;;;22.63;;
25163;SDS011;13440;50.860;13.662;2024-03-08T03:52:51;41.95;;;23.35;;
25163;SDS011;13440;50.860;13.662;2024-03-08T03:55:16;46.90;;;23.95;;
25163;SDS011;13440;50.860;13.662;2024-03-08T03:57:41;45.15;;;23.35;;
25163;SDS011;13440;50.860;13.662;2024-03-08T04:00:07;43.83;;;24.13;;
25163;SDS011;13440;50.860;13.662;2024-03-08T04:02:37;49.90;;;25.17;;
25163;SDS011;13440;50.860;13.662;2024-03-08T04:05:04;46.15;;;24.60;;
25163;SDS011;13440;50.860;13.662;2024-03-08T04:07:29;46.53;;;23.70;;
25163;SDS011;13440;50.860;13.662;2024-03-08T04:09:54;41.03;;;22.67;;
25163;SDS011;13440;50.860;13.662;2024-03-08T04:12:20;44.43;;;23.67;;
25163;SDS011;13440;50.860;13.662;2024-03-08T04:14:45;41.67;;;24.10;;
25163;SDS011;13440;50.860;13.662;2024-03-08T04:17:10;46.33;;;24.73;;
25163;SDS011;13440;50.860;13.662;2024-03-08T04:19:36;48.05;;;24.70;;
25163;SDS011;13440;50.860;13.662;2024-03-08T04:22:01;54.13;;;26.52;;
25163;SDS011;13440;50.860;13.662;2024-03-08T04:24:27;46.88;;;24.13;;
25163;SDS011;13440;50.860;13.662;2024-03-08T04:26:52;49.78;;;24.27;;
25163;SDS011;13440;50.860;13.662;2024-03-08T04:29:18;48.83;;;24.33;;
25163;SDS011;13440;50.860;13.662;2024-03-08T04:31:43;45.75;;;24.10;;
25163;SDS011;13440;50.860;13.662;2024-03-08T04:34:09;46.25;;;25.38;;
25163;SDS011;13440;50.860;13.662;2024-03-08T04:36:34;47.50;;;24.83;;
25163;SDS011;13440;50.860;13.662;2024-03-08T04:39:00;53.42;;;28.88;;
25163;SDS011;13440;50.860;13.662;2024-03-08T04:41:25;50.25;;;25.58;;
25163;SDS011;13440;50.860;13.662;2024-03-08T04:43:50;43.40;;;24.70;;
25163;SDS011;13440;50.860;13.662;2024-03-08T04:46:16;47.25;;;25.65;;
25163;SDS011;13440;50.860;13.662;2024-03-08T04:48:42;45.85;;;24.80;;
25163;SDS011;13440;50.860;13.662;2024-03-08T04:51:08;47.17;;;25.45;;
25163;SDS011;13440;50.860;13.662;2024-03-08T04:53:34;46.28;;;24.17;;
25163;SDS011;13440;50.860;13.662;2024-03-08T04:56:00;46.50;;;24.77;;
25163;SDS011;13440;50.860;13.662;2024-03-08T04:58:25;48.15;;;25.08;;
25163;SDS011;13440;50.860;13.662;2024-03-08T05:00:50;47.87;;;24.57;;
25163;SDS011;13440;50.860;13.662;2024-03-08T05:03:16;48.75;;;25.50;;
25163;SDS011;13440;50.860;13.662;2024-03-08T05:05:41;49.00;;;24.75;;
25163;SDS011;13440;50.860;13.662;2024-03-08T05:08:06;46.40;;;23.77;;
25163;SDS011;13440;50.860;13.662;2024-03-08T05:10:32;43.63;;;24.63;;
25163;SDS011;13440;50.860;13.662;2024-03-08T05:12:57;48.90;;;24.90;;
25163;SDS011;13440;50.860;13.662;2024-03-08T05:15:22;47.60;;;24.75;;
25163;SDS011;13440;50.860;13.662;2024-03-08T05:17:48;45.80;;;24.83;;
25163;SDS011;13440;50.860;13.662;2024-03-08T05:20:13;50.23;;;24.67;;
25163;SDS011;13440;50.860;13.662;2024-03-08T05:22:38;46.05;;;24.90;;
25163;SDS011;13440;50.860;13.662;2024-03-08T05:25:05;51.83;;;26.38;;
25163;SDS011;13440;50.860;13.662;2024-03-08T05:27:32;48.40;;;26.80;;
25163;SDS011;13440;50.860;13.662;2024-03-08T05:29:57;52.50;;;25.97;;
25163;SDS011;13440;50.860;13.662;2024-03-08T05:32:22;48.53;;;25.40;;
25163;SDS011;13440;50.860;13.662;2024-03-08T05:34:47;46.50;;;25.83;;
25163;SDS011;13440;50.860;13.662;2024-03-08T05:37:13;49.87;;;25.30;;
25163;SDS011;13440;50.860;13.662;2024-03-08T05:39:38;46.87;;;25.40;;
25163;SDS011;13440;50.860;13.662;2024-03-08T05:42:03;50.53;;;26.02;;
25163;SDS011;13440;50.860;13.662;2024-03-08T05:44:28;48.40;;;25.10;;
25163;SDS011;13440;50.860;13.662;2024-03-08T05:46:55;53.78;;;27.38;;
25163;SDS011;13440;50.860;13.662;2024-03-08T05:49:21;52.95;;;28.08;;
25163;SDS011;13440;50.860;13.662;2024-03-08T05:51:46;56.47;;;28.92;;
25163;SDS011;13440;50.860;13.662;2024-03-08T05:54:12;56.33;;;29.23;;
25163;SDS011;13440;50.860;13.662;2024-03-08T05:56:38;54.25;;;28.23;;
25163;SDS011;13440;50.860;13.662;2024-03-08T05:59:04;57.08;;;28.60;;
25163;SDS011;13440;50.860;13.662;2024-03-08T06:01:29;50.08;;;27.83;;
25163;SDS011;13440;50.860;13.662;2024-03-08T06:03:55;52.13;;;26.92;;
25163;SDS011;13440;50.860;13.662;2024-03-08T06:06:23;54.67;;;28.27;;
25163;SDS011;13440;50.860;13.662;2024-03-08T06:08:49;50.88;;;28.17;;
25163;SDS011;13440;50.860;13.662;2024-03-08T06:11:15;54.13;;;28.48;;
25163;SDS011;13440;50.860;13.662;2024-03-08T06:13:40;51.58;;;28.23;;
25163;SDS011;13440;50.860;13.662;2024-03-08T06:16:05;54.78;;;28.40;;
25163;SDS011;13440;50.860;13.662;2024-03-08T06:18:33;50.92;;;25.70;;
25163;SDS011;13440;50.860;13.662;2024-03-08T06:20:59;47.17;;;25.13;;
25163;SDS011;13440;50.860;13.662;2024-03-08T06:23:24;45.92;;;25.92;;
25163;SDS011;13440;50.860;13.662;2024-03-08T06:25:49;55.15;;;26.98;;
25163;SDS011;13440;50.860;13.662;2024-03-08T06:28:14;101.93;;;28.20;;
25163;SDS011;13440;50.860;13.662;2024-03-08T06:30:40;47.30;;;26.23;;
25163;SDS011;13440;50.860;13.662;2024-03-08T06:33:05;52.10;;;26.80;;
25163;SDS011;13440;50.860;13.662;2024-03-08T06:35:30;50.70;;;27.42;;
25163;SDS011;13440;50.860;13.662;2024-03-08T06:37:57;46.15;;;26.17;;
25163;SDS011;13440;50.860;13.662;2024-03-08T06:40:22;49.63;;;27.60;;
25163;SDS011;13440;50.860;13.662;2024-03-08T06:42:48;54.78;;;27.70;;
25163;SDS011;13440;50.860;13.662;2024-03-08T06:45:13;43.40;;;24.75;;
25163;SDS011;13440;50.860;13.662;2024-03-08T06:47:44;38.33;;;22.33;;
25163;SDS011;13440;50.860;13.662;2024-03-08T06:50:09;35.45;;;22.45;;
25163;SDS011;13440;50.860;13.662;2024-03-08T06:52:34;36.72;;;22.55;;
25163;SDS011;13440;50.860;13.662;2024-03-08T06:55:00;36.97;;;21.38;;
25163;SDS011;13440;50.860;13.662;2024-03-08T06:57:26;36.38;;;22.38;;
25163;SDS011;13440;50.860;13.662;2024-03-08T06:59:51;33.40;;;19.83;;
25163;SDS011;13440;50.860;13.662;2024-03-08T07:02:17;29.52;;;20.23;;
25163;SDS011;13440;50.860;13.662;2024-03-08T07:04:42;28.17;;;20.30;;
25163;SDS011;13440;50.860;13.662;2024-03-08T07:07:07;29.57;;;20.57;;
25163;SDS011;13440;50.860;13.662;2024-03-08T07:09:35;28.20;;;19.50;;
25163;SDS011;13440;50.860;13.662;2024-03-08T07:12:01;29.98;;;20.80;;
25163;SDS011;13440;50.860;13.662;2024-03-08T07:14:26;30.83;;;22.55;;
25163;SDS011;13440;50.860;13.662;2024-03-08T07:16:52;30.55;;;21.02;;
25163;SDS011;13440;50.860;13.662;2024-03-08T07:19:17;26.75;;;20.25;;
25163;SDS011;13440;50.860;13.662;2024-03-08T07:21:44;28.15;;;20.58;;
25163;SDS011;13440;50.860;13.662;2024-03-08T07:24:09;27.45;;;20.40;;
25163;SDS011;13440;50.860;13.662;2024-03-08T07:26:52;33.28;;;21.10;;
25163;SDS011;13440;50.860;13.662;2024-03-08T07:29:17;31.15;;;21.80;;
25163;SDS011;13440;50.860;13.662;2024-03-08T07:31:43;28.87;;;19.80;;
25163;SDS011;13440;50.860;13.662;2024-03-08T07:34:26;30.83;;;21.60;;
25163;SDS011;13440;50.860;13.662;2024-03-08T07:36:51;29.92;;;21.10;;
25163;SDS011;13440;50.860;13.662;2024-03-08T07:39:16;27.55;;;20.00;;
25163;SDS011;13440;50.860;13.662;2024-03-08T07:41:42;26.15;;;20.80;;
25163;SDS011;13440;50.860;13.662;2024-03-08T07:44:07;24.85;;;19.23;;
25163;SDS011;13440;50.860;13.662;2024-03-08T07:46:33;28.17;;;21.90;;
25163;SDS011;13440;50.860;13.662;2024-03-08T07:49:02;27.88;;;20.73;;
25163;SDS011;13440;50.860;13.662;2024-03-08T07:51:28;33.25;;;22.80;;
25163;SDS011;13440;50.860;13.662;2024-03-08T07:53:53;27.73;;;22.30;;
25163;SDS011;13440;50.860;13.662;2024-03-08T07:56:18;24.03;;;19.47;;
25163;SDS011;13440;50.860;13.662;2024-03-08T07:58:44;29.65;;;22.77;;
25163;SDS011;13440;50.860;13.662;2024-03-08T08:01:18;30.13;;;21.85;;
25163;SDS011;13440;50.860;13.662;2024-03-08T08:03:43;25.23;;;19.45;;
25163;SDS011;13440;50.860;13.662;2024-03-08T08:06:09;28.75;;;20.25;;
25163;SDS011;13440;50.860;13.662;2024-03-08T08:08:34;25.15;;;19.73;;
25163;SDS011;13440;50.860;13.662;2024-03-08T08:11:00;26.48;;;19.95;;
25163;SDS011;13440;50.860;13.662;2024-03-08T08:13:26;26.75;;;20.55;;
25163;SDS011;13440;50.860;13.662;2024-03-08T08:15:53;25.02;;;19.38;;
25163;SDS011;13440;50.860;13.662;2024-03-08T08:18:18;27.23;;;19.85;;
25163;SDS011;13440;50.860;13.662;2024-03-08T08:20:45;24.23;;;19.35;;
25163;SDS011;13440;50.860;13.662;2024-03-08T08:23:10;26.10;;;19.10;;
25163;SDS011;13440;50.860;13.662;2024-03-08T08:25:37;23.05;;;19.20;;
25163;SDS011;13440;50.860;13.662;2024-03-08T08:28:03;23.55;;;18.50;;
25163;SDS011;13440;50.860;13.662;2024-03-08T08:30:29;24.10;;;18.40;;
25163;SDS011;13440;50.860;13.662;2024-03-08T08:32:54;25.25;;;18.80;;
25163;SDS011;13440;50.860;13.662;2024-03-08T08:35:20;27.30;;;19.85;;
25163;SDS011;13440;50.860;13.662;2024-03-08T08:37:45;26.42;;;18.55;;
25163;SDS011;13440;50.860;13.662;2024-03-08T08:40:10;27.17;;;18.97;;
25163;SDS011;13440;50.860;13.662;2024-03-08T08:42:39;24.50;;;18.65;;
25163;SDS011;13440;50.860;13.662;2024-03-08T08:45:05;27.27;;;18.80;;
25163;SDS011;13440;50.860;13.662;2024-03-08T08:47:34;25.25;;;18.08;;
25163;SDS011;13440;50.860;13.662;2024-03-08T08:49:59;27.48;;;19.67;;
25163;SDS011;13440;50.860;13.662;2024-03-08T08:52:26;24.95;;;18.85;;
25163;SDS011;13440;50.860;13.662;2024-03-08T08:54:51;25.77;;;19.07;;
25163;SDS011;13440;50.860;13.662;2024-03-08T08:57:16;25.35;;;18.73;;
25163;SDS011;13440;50.860;13.662;2024-03-08T08:59:42;26.63;;;18.15;;
25163;SDS011;13440;50.860;13.662;2024-03-08T09:02:07;26.77;;;18.77;;
25163;SDS011;13440;50.860;13.662;2024-03-08T09:04:33;25.35;;;19.42;;
25163;SDS011;13440;50.860;13.662;2024-03-08T09:07:00;24.98;;;18.63;;
25163;SDS011;13440;50.860;13.662;2024-03-08T09:09:27;26.10;;;18.77;;
25163;SDS011;13440;50.860;13.662;2024-03-08T09:11:52;26.67;;;17.90;;
25163;SDS011;13440;50.860;13.662;2024-03-08T09:14:17;25.73;;;17.67;;
25163;SDS011;13440;50.860;13.662;2024-03-08T09:16:43;23.80;;;18.60;;
25163;SDS011;13440;50.860;13.662;2024-03-08T09:19:08;26.07;;;19.07;;
25163;SDS011;13440;50.860;13.662;2024-03-08T09:21:35;24.58;;;18.55;;
25163;SDS011;13440;50.860;13.662;2024-03-08T09:24:01;24.55;;;19.55;;
25163;SDS011;13440;50.860;13.662;2024-03-08T09:26:26;26.08;;;19.17;;
25163;SDS011;13440;50.860;13.662;2024-03-08T09:28:52;24.63;;;18.73;;
25163;SDS011;13440;50.860;13.662;2024-03-08T09:31:17;23.58;;;18.30;;
25163;SDS011;13440;50.860;13.662;2024-03-08T09:33:42;26.33;;;18.88;;
25163;SDS011;13440;50.860;13.662;2024-03-08T09:36:08;26.65;;;18.05;;
25163;SDS011;13440;50.860;13.662;2024-03-08T09:38:33;28.52;;;19.63;;
25163;SDS011;13440;50.860;13.662;2024-03-08T09:41:01;28.52;;;20.52;;
25163;SDS011;13440;50.860;13.662;2024-03-08T09:43:29;30.85;;;20.35;;
25163;SDS011;13440;50.860;13.662;2024-03-08T09:45:55;26.70;;;19.65;;
25163;SDS011;13440;50.860;13.662;2024-03-08T09:48:22;26.85;;;19.70;;
25163;SDS011;13440;50.860;13.662;2024-03-08T09:50:47;29.83;;;19.17;;
25163;SDS011;13440;50.860;13.662;2024-03-08T09:53:13;28.92;;;20.60;;
25163;SDS011;13440;50.860;13.662;2024-03-08T09:55:38;28.17;;;20.70;;
25163;SDS011;13440;50.860;13.662;2024-03-08T09:58:12;29.38;;;19.65;;
25163;SDS011;13440;50.860;13.662;2024-03-08T10:00:53;28.90;;;19.52;;
25163;SDS011;13440;50.860;13.662;2024-03-08T10:03:21;26.83;;;19.05;;
25163;SDS011;13440;50.860;13.662;2024-03-08T10:05:47;29.20;;;19.73;;
25163;SDS011;13440;50.860;13.662;2024-03-08T10:08:12;27.38;;;19.98;;
25163;SDS011;13440;50.860;13.662;2024-03-08T10:10:38;26.88;;;19.33;;
25163;SDS011;13440;50.860;13.662;2024-03-08T10:13:07;25.58;;;19.45;;
25163;SDS011;13440;50.860;13.662;2024-03-08T10:15:32;28.15;;;20.45;;
25163;SDS011;13440;50.860;13.662;2024-03-08T10:18:00;29.92;;;20.83;;
25163;SDS011;13440;50.860;13.662;2024-03-08T10:20:27;25.00;;;18.90;;
25163;SDS011;13440;50.860;13.662;2024-03-08T10:22:54;26.73;;;19.40;;
25163;SDS011;13440;50.860;13.662;2024-03-08T10:25:20;27.75;;;18.88;;
25163;SDS011;13440;50.860;13.662;2024-03-08T10:27:45;28.75;;;20.35;;
25163;SDS011;13440;50.860;13.662;2024-03-08T10:30:14;27.98;;;19.80;;
25163;SDS011;13440;50.860;13.662;2024-03-08T10:32:41;27.40;;;19.23;;
25163;SDS011;13440;50.860;13.662;2024-03-08T10:35:07;28.83;;;19.33;;
25163;SDS011;13440;50.860;13.662;2024-03-08T10:37:33;26.08;;;18.98;;
25163;SDS011;13440;50.860;13.662;2024-03-08T10:40:04;30.63;;;19.83;;
25163;SDS011;13440;50.860;13.662;2024-03-08T10:42:40;29.75;;;20.60;;
25163;SDS011;13440;50.860;13.662;2024-03-08T10:45:06;23.88;;;17.90;;
25163;SDS011;13440;50.860;13.662;2024-03-08T10:47:38;27.23;;;19.23;;
25163;SDS011;13440;50.860;13.662;2024-03-08T10:52:34;25.70;;;18.45;;
25163;SDS011;13440;50.860;13.662;2024-03-08T10:55:00;22.65;;;18.02;;
25163;SDS011;13440;50.860;13.662;2024-03-08T10:57:27;28.75;;;19.55;;
25163;SDS011;13440;50.860;13.662;2024-03-08T10:59:52;27.25;;;18.38;;
25163;SDS011;13440;50.860;13.662;2024-03-08T11:02:18;27.48;;;18.25;;
25163;SDS011;13440;50.860;13.662;2024-03-08T11:04:47;24.85;;;18.20;;
25163;SDS011;13440;50.860;13.662;2024-03-08T11:07:14;28.38;;;18.02;;
25163;SDS011;13440;50.860;13.662;2024-03-08T11:09:42;26.65;;;17.50;;
25163;SDS011;13440;50.860;13.662;2024-03-08T11:12:26;23.80;;;17.35;;
25163;SDS011;13440;50.860;13.662;2024-03-08T11:15:01;23.25;;;16.42;;
25163;SDS011;13440;50.860;13.662;2024-03-08T11:19:57;23.08;;;16.15;;
25163;SDS011;13440;50.860;13.662;2024-03-08T11:22:27;28.05;;;16.95;;
25163;SDS011;13440;50.860;13.662;2024-03-08T11:24:53;22.92;;;16.67;;
25163;SDS011;13440;50.860;13.662;2024-03-08T11:27:18;23.55;;;17.13;;
25163;SDS011;13440;50.860;13.662;2024-03-08T11:29:45;24.33;;;16.95;;
25163;SDS011;13440;50.860;13.662;2024-03-08T11:32:26;26.23;;;16.35;;
25163;SDS011;13440;50.860;13.662;2024-03-08T11:34:53;29.48;;;17.80;;
25163;SDS011;13440;50.860;13.662;2024-03-08T11:37:19;31.17;;;17.75;;
25163;SDS011;13440;50.860;13.662;2024-03-08T11:39:49;27.33;;;18.42;;
25163;SDS011;13440;50.860;13.662;2024-03-08T11:42:15;28.85;;;19.27;;
25163;SDS011;13440;50.860;13.662;2024-03-08T11:44:42;26.67;;;18.42;;
25163;SDS011;13440;50.860;13.662;2024-03-08T11:47:09;24.35;;;17.13;;
25163;SDS011;13440;50.860;13.662;2024-03-08T11:49:35;28.48;;;19.10;;
25163;SDS011;13440;50.860;13.662;2024-03-08T11:52:01;27.67;;;18.45;;
25163;SDS011;13440;50.860;13.662;2024-03-08T11:54:26;31.65;;;19.60;;
25163;SDS011;13440;50.860;13.662;2024-03-08T11:56:51;25.42;;;17.80;;
25163;SDS011;13440;50.860;13.662;2024-03-08T11:59:17;27.67;;;17.88;;
25163;SDS011;13440;50.860;13.662;2024-03-08T12:01:43;23.40;;;16.77;;
25163;SDS011;13440;50.860;13.662;2024-03-08T12:04:10;24.73;;;17.55;;
25163;SDS011;13440;50.860;13.662;2024-03-08T12:06:37;29.45;;;19.25;;
25163;SDS011;13440;50.860;13.662;2024-03-08T12:09:04;32.38;;;18.70;;
25163;SDS011;13440;50.860;13.662;2024-03-08T12:11:29;30.63;;;18.73;;
25163;SDS011;13440;50.860;13.662;2024-03-08T12:13:56;28.88;;;19.20;;
25163;SDS011;13440;50.860;13.662;2024-03-08T12:16:23;30.85;;;17.95;;
25163;SDS011;13440;50.860;13.662;2024-03-08T12:18:50;22.35;;;14.95;;
25163;SDS011;13440;50.860;13.662;2024-03-08T12:21:16;23.58;;;15.65;;
25163;SDS011;13440;50.860;13.662;2024-03-08T12:24:03;24.05;;;16.30;;
25163;SDS011;13440;50.860;13.662;2024-03-08T12:26:28;23.60;;;14.65;;
25163;SDS011;13440;50.860;13.662;2024-03-08T12:28:53;23.20;;;15.03;;
25163;SDS011;13440;50.860;13.662;2024-03-08T12:31:19;20.10;;;14.43;;
25163;SDS011;13440;50.860;13.662;2024-03-08T12:33:50;23.35;;;14.90;;
25163;SDS011;13440;50.860;13.662;2024-03-08T12:36:16;21.95;;;15.13;;
25163;SDS011;13440;50.860;13.662;2024-03-08T12:38:47;18.95;;;13.88;;
25163;SDS011;13440;50.860;13.662;2024-03-08T12:41:16;22.85;;;15.48;;
25163;SDS011;13440;50.860;13.662;2024-03-08T12:43:45;24.60;;;15.82;;
25163;SDS011;13440;50.860;13.662;2024-03-08T12:46:19;23.85;;;16.35;;
25163;SDS011;13440;50.860;13.662;2024-03-08T12:48:45;27.27;;;17.50;;
25163;SDS011;13440;50.860;13.662;2024-03-08T12:51:15;26.13;;;17.02;;
25163;SDS011;13440;50.860;13.662;2024-03-08T12:53:44;24.05;;;16.70;;
25163;SDS011;13440;50.860;13.662;2024-03-08T12:56:10;27.40;;;17.45;;
25163;SDS011;13440;50.860;13.662;2024-03-08T12:58:36;24.15;;;14.52;;
25163;SDS011;13440;50.860;13.662;2024-03-08T13:01:02;22.58;;;16.33;;
25163;SDS011;13440;50.860;13.662;2024-03-08T13:03:29;29.38;;;18.63;;
25163;SDS011;13440;50.860;13.662;2024-03-08T13:05:55;25.17;;;17.70;;
25163;SDS011;13440;50.860;13.662;2024-03-08T13:08:22;24.23;;;16.38;;
25163;SDS011;13440;50.860;13.662;2024-03-08T13:10:49;28.00;;;18.45;;
25163;SDS011;13440;50.860;13.662;2024-03-08T13:13:16;24.05;;;16.35;;
25163;SDS011;13440;50.860;13.662;2024-03-08T13:15:42;27.25;;;16.92;;
25163;SDS011;13440;50.860;13.662;2024-03-08T13:18:07;24.27;;;16.63;;
25163;SDS011;13440;50.860;13.662;2024-03-08T13:20:34;21.67;;;15.50;;
25163;SDS011;13440;50.860;13.662;2024-03-08T13:23:02;23.25;;;15.80;;
25163;SDS011;13440;50.860;13.662;2024-03-08T13:25:27;25.33;;;17.05;;
25163;SDS011;13440;50.860;13.662;2024-03-08T13:27:53;26.77;;;15.88;;
25163;SDS011;13440;50.860;13.662;2024-03-08T13:30:21;20.83;;;13.90;;
25163;SDS011;13440;50.860;13.662;2024-03-08T13:32:51;29.35;;;14.65;;
25163;SDS011;13440;50.860;13.662;2024-03-08T13:35:16;38.72;;;22.92;;
25163;SDS011;13440;50.860;13.662;2024-03-08T13:37:49;21.20;;;12.40;;
25163;SDS011;13440;50.860;13.662;2024-03-08T13:40:14;20.40;;;12.70;;
25163;SDS011;13440;50.860;13.662;2024-03-08T13:42:39;22.73;;;13.83;;
25163;SDS011;13440;50.860;13.662;2024-03-08T13:45:05;22.50;;;12.80;;
25163;SDS011;13440;50.860;13.662;2024-03-08T13:47:32;17.02;;;12.02;;
25163;SDS011;13440;50.860;13.662;2024-03-08T13:49:57;16.48;;;11.07;;
25163;SDS011;13440;50.860;13.662;2024-03-08T13:52:22;17.50;;;12.07;;
25163;SDS011;13440;50.860;13.662;2024-03-08T13:54:50;14.48;;;10.63;;
25163;SDS011;13440;50.860;13.662;2024-03-08T13:57:16;19.77;;;13.05;;
25163;SDS011;13440;50.860;13.662;2024-03-08T13:59:42;21.67;;;12.38;;
25163;SDS011;13440;50.860;13.662;2024-03-08T14:02:07;22.17;;;12.60;;
25163;SDS011;13440;50.860;13.662;2024-03-08T14:04:38;19.23;;;13.02;;
25163;SDS011;13440;50.860;13.662;2024-03-08T14:07:04;18.33;;;12.07;;
25163;SDS011;13440;50.860;13.662;2024-03-08T14:09:33;18.60;;;12.30;;